createdAt,value
2019-06-10T00:01:31.441Z,5.67
2019-06-10T00:03:57.794Z,5.90
2019-06-10T00:06:23.386Z,5.07
2019-06-10T00:08:50.599Z,4.97
2019-06-10T00:11:16.874Z,5.40
2019-06-10T00:13:43.626Z,6.00
2019-06-10T00:16:11.512Z,6.00
2019-06-10T00:18:42.157Z,4.63
2019-06-10T00:21:05.536Z,5.33
2019-06-10T00:23:32.018Z,5.53
2019-06-10T00:25:57.893Z,7.10
2019-06-10T00:28:24.294Z,6.87
2019-06-10T00:30:51.560Z,6.57
2019-06-10T00:33:17.766Z,6.63
2019-06-10T00:35:44.494Z,5.87
2019-06-10T00:38:14.225Z,5.87
2019-06-10T00:40:37.966Z,6.30
2019-06-10T00:43:06.577Z,6.40
2019-06-10T00:45:31.648Z,7.30
2019-06-10T00:48:08.571Z,6.47
2019-06-10T00:50:24.950Z,7.43
2019-06-10T00:52:51.827Z,8.03
2019-06-10T00:55:21.035Z,8.23
2019-06-10T00:57:45.165Z,7.40
2019-06-10T01:00:19.270Z,7.50
2019-06-10T01:02:40.946Z,7.07
2019-06-10T01:05:05.370Z,7.90
2019-06-10T01:07:32.116Z,8.67
2019-06-10T01:10:00.977Z,6.87
2019-06-10T01:12:25.606Z,7.60
2019-06-10T01:14:52.336Z,8.20
2019-06-10T01:17:21.194Z,8.30
2019-06-10T01:19:45.813Z,7.07
2019-06-10T01:22:13.850Z,7.57
2019-06-10T01:24:40.792Z,6.10
2019-06-10T01:27:06.022Z,8.07
2019-06-10T01:29:33.358Z,6.80
2019-06-10T01:32:01.706Z,7.67
2019-06-10T01:34:26.821Z,7.10
2019-06-10T01:36:53.543Z,7.67
2019-06-10T01:39:22.470Z,8.30
2019-06-10T01:41:47.054Z,9.23
2019-06-10T01:44:14.698Z,8.47
2019-06-10T01:46:41.013Z,8.57
2019-06-10T01:49:07.270Z,7.60
2019-06-10T01:51:34.003Z,6.57
2019-06-10T01:54:01.333Z,7.77
2019-06-10T01:56:27.479Z,8.40
2019-06-10T01:58:54.227Z,9.73
2019-06-10T02:01:41.291Z,9.47
2019-06-10T02:04:08.264Z,9.40
2019-06-10T02:06:34.459Z,9.30
2019-06-10T02:09:04.738Z,9.03
2019-06-10T02:11:31.831Z,9.33
2019-06-10T02:14:00.790Z,8.47
2019-06-10T02:16:25.231Z,9.37
2019-06-10T02:19:00.176Z,8.93
2019-06-10T02:21:22.599Z,9.20
2019-06-10T02:23:45.442Z,9.58
2019-06-10T02:26:14.923Z,8.27
2019-06-10T02:28:40.681Z,8.10
2019-06-10T02:31:05.641Z,8.13
2019-06-10T02:33:36.408Z,8.40
2019-06-10T02:35:59.132Z,9.20
2019-06-10T02:38:34.050Z,8.43
2019-06-10T02:40:53.833Z,9.17
2019-06-10T02:43:23.936Z,9.60
2019-06-10T02:45:46.827Z,8.90
2019-06-10T02:48:16.152Z,11.25
2019-06-10T02:50:56.309Z,9.80
2019-06-10T02:53:30.487Z,8.27
2019-06-10T02:55:49.778Z,9.73
2019-06-10T02:58:19.119Z,9.30
2019-06-10T03:00:48.284Z,8.60
2019-06-10T03:03:13.501Z,8.00
2019-06-10T03:05:41.000Z,8.10
2019-06-10T03:08:04.020Z,7.50
2019-06-10T03:10:36.109Z,8.17
2019-06-10T03:12:56.970Z,7.03
2019-06-10T03:15:26.431Z,8.10
2019-06-10T03:17:52.129Z,7.70
2019-06-10T03:20:17.900Z,7.90
2019-06-10T03:22:43.981Z,8.13
2019-06-10T03:25:12.968Z,7.77
2019-06-10T03:27:37.487Z,9.27
2019-06-10T03:30:14.751Z,9.67
2019-06-10T03:32:39.470Z,9.40
2019-06-10T03:34:57.887Z,9.37
2019-06-10T03:37:27.247Z,9.40
2019-06-10T03:39:53.082Z,12.20
2019-06-10T03:42:18.799Z,10.23
2019-06-10T03:44:44.850Z,10.00
2019-06-10T03:47:12.151Z,9.70
2019-06-10T03:49:49.912Z,9.63
2019-06-10T03:52:05.066Z,9.30
2019-06-10T03:54:32.582Z,9.00
2019-06-10T03:56:58.542Z,8.70
2019-06-10T03:59:27.773Z,7.10
2019-06-10T04:01:52.974Z,8.73
2019-06-10T04:04:19.431Z,7.67
2019-06-10T04:06:45.570Z,7.93
2019-06-10T04:09:12.313Z,8.90
2019-06-10T04:11:39.146Z,8.43
2019-06-10T04:14:05.825Z,7.03
2019-06-10T04:16:32.860Z,8.13
2019-06-10T04:18:59.330Z,7.83
2019-06-10T04:21:27.255Z,7.03
2019-06-10T04:23:52.949Z,7.10
2019-06-10T04:26:19.768Z,6.87
2019-06-10T04:28:46.278Z,6.67
2019-06-10T04:31:13.318Z,6.30
2019-06-10T04:33:41.950Z,6.93
2019-06-10T04:36:06.482Z,7.23
2019-06-10T04:38:33.214Z,8.33
2019-06-10T04:40:59.954Z,8.07
2019-06-10T04:43:27.742Z,8.57
2019-06-10T04:45:53.461Z,8.43
2019-06-10T04:48:21.239Z,8.27
2019-06-10T04:50:46.954Z,8.60
2019-06-10T04:53:13.681Z,8.40
2019-06-10T04:55:40.432Z,8.80
2019-06-10T04:58:07.158Z,9.27
2019-06-10T05:00:33.902Z,8.63
2019-06-10T05:03:02.729Z,8.33
2019-06-10T05:05:28.837Z,7.63
2019-06-10T05:07:54.221Z,7.93
2019-06-10T05:10:23.403Z,7.67
2019-06-10T05:12:47.686Z,6.97
2019-06-10T05:15:14.430Z,6.70
2019-06-10T05:17:43.648Z,6.70
2019-06-10T05:20:08.000Z,6.50
2019-06-10T05:22:34.718Z,5.93
2019-06-10T05:25:02.501Z,5.43
2019-06-10T05:27:28.579Z,5.10
2019-06-10T05:29:54.986Z,5.87
2019-06-10T05:32:23.203Z,5.00
2019-06-10T05:34:48.474Z,5.73
2019-06-10T05:37:15.286Z,5.20
2019-06-10T05:39:42.451Z,4.53
2019-06-10T05:42:08.798Z,5.10
2019-06-10T05:44:35.546Z,5.13
2019-06-10T05:47:03.649Z,5.30
2019-06-10T05:49:29.212Z,4.77
2019-06-10T05:51:55.822Z,5.33
2019-06-10T05:54:23.397Z,6.93
2019-06-10T05:56:49.289Z,6.00
2019-06-10T05:59:16.036Z,5.63
2019-06-10T06:01:43.331Z,5.77
2019-06-10T06:04:09.485Z,6.17
2019-06-10T06:06:37.408Z,6.40
2019-06-10T06:09:04.018Z,7.97
2019-06-10T06:11:33.473Z,6.37
2019-06-10T06:13:57.515Z,6.93
2019-06-10T06:16:25.600Z,7.27
2019-06-10T06:18:52.710Z,6.50
2019-06-10T06:21:25.229Z,6.27
2019-06-10T06:23:44.488Z,6.37
2019-06-10T06:26:16.264Z,6.43
2019-06-10T06:28:38.301Z,7.10
2019-06-10T06:31:04.810Z,6.03
2019-06-10T06:33:34.694Z,6.50
2019-06-10T06:35:58.310Z,6.23
2019-06-10T06:38:25.039Z,6.87
2019-06-10T06:40:53.709Z,6.77
2019-06-10T06:43:18.564Z,6.40
2019-06-10T06:45:45.364Z,6.50
2019-06-10T06:48:12.415Z,6.00
2019-06-10T06:50:57.314Z,6.50
2019-06-10T06:53:30.058Z,7.00
2019-06-10T06:55:33.733Z,7.23
2019-06-10T06:57:59.058Z,5.87
2019-06-10T07:00:49.216Z,7.53
2019-06-10T07:02:59.042Z,7.63
2019-06-10T07:05:25.835Z,8.13
2019-06-10T07:07:52.770Z,9.03
2019-06-10T07:10:19.330Z,8.50
2019-06-10T07:12:46.066Z,8.50
2019-06-10T07:15:12.815Z,9.93
2019-06-10T07:17:41.597Z,12.13
2019-06-10T07:20:06.402Z,9.70
2019-06-10T07:22:35.160Z,9.90
2019-06-10T07:25:04.153Z,9.73
2019-06-10T07:27:26.594Z,8.87
2019-06-10T07:29:53.349Z,8.10
2019-06-10T07:32:22.542Z,10.40
2019-06-10T07:34:47.089Z,10.57
2019-06-10T07:37:13.553Z,11.43
2019-06-10T07:39:41.707Z,12.33
2019-06-10T07:42:07.131Z,11.13
2019-06-10T07:44:34.900Z,13.32
2019-06-10T07:47:02.601Z,11.90
2019-06-10T07:49:27.430Z,12.50
2019-06-10T07:51:54.178Z,11.17
2019-06-10T07:54:23.078Z,11.00
2019-06-10T07:56:50.523Z,12.40
2019-06-10T07:59:14.402Z,9.07
2019-06-10T08:01:45.923Z,9.77
2019-06-10T08:04:07.910Z,10.43
2019-06-10T08:06:36.314Z,8.27
2019-06-10T08:09:02.302Z,10.03
2019-06-10T08:11:28.157Z,9.27
2019-06-10T08:13:54.883Z,8.67
2019-06-10T08:16:23.602Z,10.08
2019-06-10T08:19:16.128Z,9.33
2019-06-10T08:21:15.207Z,10.80
2019-06-10T08:23:45.047Z,8.90
2019-06-10T08:26:08.810Z,8.20
2019-06-10T08:28:35.576Z,8.60
2019-06-10T08:31:03.729Z,9.83
2019-06-10T08:33:29.075Z,9.75
2019-06-10T08:36:00.114Z,7.60
2019-06-10T08:38:23.155Z,8.17
2019-06-10T08:40:49.623Z,7.93
2019-06-10T08:43:16.462Z,9.00
2019-06-10T08:45:44.194Z,10.10
2019-06-10T08:48:10.039Z,8.93
2019-06-10T08:50:37.628Z,9.30
2019-06-10T08:53:13.988Z,8.67
2019-06-10T08:55:31.226Z,8.23
2019-06-10T08:57:57.113Z,9.10
2019-06-10T09:00:25.669Z,8.80
2019-06-10T09:02:53.664Z,7.47
2019-06-10T09:05:17.381Z,7.90
2019-06-10T09:07:49.189Z,7.27
2019-06-10T09:10:13.416Z,7.70
2019-06-10T09:12:38.430Z,7.03
2019-06-10T09:15:04.774Z,5.50
2019-06-10T09:17:33.821Z,6.10
2019-06-10T09:19:58.366Z,5.60
2019-06-10T09:22:25.123Z,6.77
2019-06-10T09:24:55.403Z,6.35
2019-06-10T09:27:18.834Z,5.57
2019-06-10T09:29:49.218Z,6.10
2019-06-10T09:32:12.538Z,5.10
2019-06-10T09:34:41.371Z,4.90
2019-06-10T09:37:05.871Z,5.80
2019-06-10T09:39:32.926Z,5.70
2019-06-10T09:42:02.704Z,6.10
2019-06-10T09:44:26.058Z,5.63
2019-06-10T09:46:55.932Z,5.13
2019-06-10T09:49:22.154Z,5.47
2019-06-10T09:51:49.908Z,4.90
2019-06-10T09:54:13.440Z,5.62
2019-06-10T09:56:42.787Z,4.67
2019-06-10T09:59:07.049Z,4.90
2019-06-10T10:01:33.794Z,4.90
2019-06-10T10:04:00.777Z,5.20
2019-06-10T10:06:27.371Z,4.90
2019-06-10T10:08:58.169Z,4.70
2019-06-10T10:11:23.521Z,4.57
2019-06-10T10:13:49.537Z,5.00
2019-06-10T10:16:14.523Z,4.70
2019-06-10T10:18:45.892Z,4.43
2019-06-10T10:21:08.020Z,4.20
2019-06-10T10:23:50.027Z,4.87
2019-06-10T10:26:03.376Z,4.80
2019-06-10T10:28:28.456Z,4.70
2019-06-10T10:30:57.739Z,4.00
2019-06-10T10:33:26.923Z,4.57
2019-06-10T10:35:49.322Z,4.20
2019-06-10T10:38:15.423Z,4.60
2019-06-10T10:40:43.989Z,4.30
2019-06-10T10:43:24.487Z,4.60
2019-06-10T10:45:35.807Z,5.28
2019-06-10T10:48:03.599Z,4.63
2019-06-10T10:50:34.182Z,5.03
2019-06-10T10:52:59.460Z,4.40
2019-06-10T10:55:28.176Z,4.30
2019-06-10T10:57:56.228Z,4.83
2019-06-10T11:00:22.714Z,4.30
2019-06-10T11:02:51.081Z,4.65
2019-06-10T11:05:33.112Z,5.20
2019-06-10T11:07:56.994Z,4.90
2019-06-10T11:10:26.496Z,3.63
2019-06-10T11:12:55.371Z,3.70
2019-06-10T11:15:23.165Z,4.13
2019-06-10T11:17:49.656Z,4.37
2019-06-10T11:20:17.164Z,4.00
2019-06-10T11:22:47.512Z,4.03
2019-06-10T11:25:13.964Z,3.63
2019-06-10T11:27:43.531Z,3.80
2019-06-10T11:30:12.467Z,3.93
2019-06-10T11:32:40.043Z,3.90
2019-06-10T11:35:08.370Z,3.50
2019-06-10T11:37:36.325Z,3.70
2019-06-10T11:40:04.572Z,3.40
2019-06-10T11:42:33.425Z,3.87
2019-06-10T11:45:02.749Z,3.10
2019-06-10T11:47:28.364Z,3.77
2019-06-10T11:49:56.869Z,3.80
2019-06-10T11:52:24.618Z,3.27
2019-06-10T11:55:05.598Z,3.30
2019-06-10T11:57:20.069Z,3.37
2019-06-10T11:59:48.032Z,3.80
2019-06-10T12:02:16.251Z,3.87
2019-06-10T12:04:44.103Z,3.00
2019-06-10T12:07:12.844Z,3.60
2019-06-10T12:09:42.526Z,3.20
2019-06-10T12:12:08.619Z,3.93
2019-06-10T12:14:36.362Z,3.00
2019-06-10T12:17:35.040Z,3.37
2019-06-10T12:19:34.113Z,3.20
2019-06-10T12:22:04.621Z,3.53
2019-06-10T12:24:27.941Z,3.10
2019-06-10T12:26:58.356Z,2.60
2019-06-10T12:29:24.004Z,3.10
2019-06-10T12:31:57.839Z,3.97
2019-06-10T12:34:22.815Z,3.40
2019-06-10T12:36:56.194Z,3.70
2019-06-10T12:39:22.886Z,3.40
2019-06-10T12:41:49.242Z,3.47
2019-06-10T12:44:16.978Z,3.77
2019-06-10T12:46:45.412Z,3.87
2019-06-10T12:49:18.128Z,4.00
2019-06-10T12:51:41.591Z,3.80
2019-06-10T12:54:12.908Z,3.57
2019-06-10T12:56:38.379Z,3.23
2019-06-10T12:59:09.877Z,3.47
2019-06-10T13:01:35.582Z,3.60
2019-06-10T13:04:07.334Z,4.10
2019-06-10T13:06:32.479Z,3.53
2019-06-10T13:09:02.252Z,3.60
2019-06-10T13:11:28.449Z,3.57
2019-06-10T13:13:57.833Z,3.53
2019-06-10T13:16:25.547Z,3.53
2019-06-10T13:18:55.752Z,3.93
2019-06-10T13:21:23.646Z,4.90
2019-06-10T13:23:54.441Z,3.50
2019-06-10T13:26:24.641Z,4.60
2019-06-10T13:28:52.734Z,4.30
2019-06-10T13:31:23.580Z,4.40
2019-06-10T13:33:49.675Z,4.93
2019-06-10T13:36:17.085Z,4.70
2019-06-10T13:38:43.189Z,3.60
2019-06-10T13:41:09.930Z,4.43
2019-06-10T13:43:36.682Z,4.17
2019-06-10T13:46:06.758Z,4.30
2019-06-10T13:48:32.078Z,3.50
2019-06-10T13:50:56.942Z,3.57
2019-06-10T13:53:23.727Z,3.90
2019-06-10T13:55:56.950Z,3.33
2019-06-10T13:58:17.289Z,3.93
2019-06-10T14:00:46.697Z,4.30
2019-06-10T14:03:17.934Z,4.73
2019-06-10T14:05:45.153Z,4.10
2019-06-10T14:08:15.037Z,3.77
2019-06-10T14:10:38.148Z,3.80
2019-06-10T14:13:06.656Z,3.83
2019-06-10T14:15:32.939Z,4.57
2019-06-10T14:17:58.390Z,4.37
2019-06-10T14:20:25.223Z,5.00
2019-06-10T14:22:52.959Z,4.60
2019-06-10T14:25:18.806Z,4.47
2019-06-10T14:27:45.623Z,4.60
2019-06-10T14:30:15.364Z,4.35
2019-06-10T14:32:39.303Z,4.40
2019-06-10T14:35:08.465Z,4.37
2019-06-10T14:37:38.928Z,4.67
2019-06-10T14:39:59.638Z,3.87
2019-06-10T14:42:26.941Z,3.77
2019-06-10T14:44:53.729Z,3.87
2019-06-10T14:47:22.861Z,3.23
2019-06-10T14:49:47.342Z,3.93
2019-06-10T14:52:16.808Z,3.30
2019-06-10T14:54:42.842Z,3.30
2019-06-10T14:57:09.339Z,3.03
2019-06-10T14:59:36.128Z,3.17
2019-06-10T15:02:02.987Z,3.23
2019-06-10T15:04:29.953Z,3.10
2019-06-10T15:06:56.731Z,3.75
2019-06-10T15:09:23.482Z,3.00
2019-06-10T15:11:52.156Z,3.20
2019-06-10T15:14:17.914Z,3.40
2019-06-10T15:16:44.450Z,3.43
2019-06-10T15:19:18.404Z,3.23
2019-06-10T15:21:39.320Z,3.35
2019-06-10T15:24:07.803Z,3.50
2019-06-10T15:26:33.330Z,3.30
2019-06-10T15:29:02.599Z,3.13
2019-06-10T15:31:27.405Z,2.90
2019-06-10T15:33:54.371Z,3.40
2019-06-10T15:36:21.166Z,3.63
2019-06-10T15:38:47.914Z,3.27
2019-06-10T15:41:18.293Z,3.53
2019-06-10T15:43:42.415Z,3.73
2019-06-10T15:46:09.901Z,3.67
2019-06-10T15:48:35.807Z,4.30
2019-06-10T15:51:03.218Z,3.97
2019-06-10T15:53:29.352Z,3.90
2019-06-10T15:56:13.425Z,4.30
2019-06-10T15:58:25.745Z,3.90
2019-06-10T16:00:49.752Z,4.05
2019-06-10T16:03:17.723Z,5.20
2019-06-10T16:05:43.847Z,4.80
2019-06-10T16:08:12.889Z,4.30
2019-06-10T16:10:37.491Z,4.10
2019-06-10T16:13:04.250Z,4.87
2019-06-10T16:15:33.087Z,4.37
2019-06-10T16:17:57.779Z,4.50
2019-06-10T16:20:24.600Z,4.93
2019-06-10T16:22:52.388Z,4.43
2019-06-10T16:25:18.262Z,5.22
2019-06-10T16:27:50.942Z,5.10
2019-06-10T16:30:13.056Z,4.60
2019-06-10T16:32:38.582Z,5.33
2019-06-10T16:35:05.715Z,4.93
2019-06-10T16:37:32.764Z,5.40
2019-06-10T16:39:59.219Z,5.67
2019-06-10T16:42:27.514Z,4.90
2019-06-10T16:44:52.825Z,5.27
2019-06-10T16:47:19.460Z,4.93
2019-06-10T16:49:46.374Z,4.97
2019-06-10T16:52:13.111Z,6.00
2019-06-10T16:54:41.933Z,5.23
2019-06-10T16:57:06.867Z,5.83
2019-06-10T16:59:33.699Z,4.20
2019-06-10T17:02:02.271Z,6.20
2019-06-10T17:04:27.750Z,5.80
2019-06-10T17:06:54.199Z,5.87
2019-06-10T17:09:23.070Z,6.13
2019-06-10T17:11:47.899Z,5.90
2019-06-10T17:14:14.784Z,5.10
2019-06-10T17:16:41.590Z,5.33
2019-06-10T17:19:08.375Z,4.50
2019-06-10T17:21:35.120Z,5.78
2019-06-10T17:24:03.415Z,5.70
2019-06-10T17:26:34.464Z,5.40
2019-06-10T17:28:55.560Z,5.70
2019-06-10T17:31:25.797Z,4.17
2019-06-10T17:33:49.187Z,5.20
2019-06-10T17:36:15.938Z,4.23
2019-06-10T17:38:43.098Z,4.43
2019-06-10T17:41:09.591Z,4.23
2019-06-10T17:43:36.338Z,4.40
2019-06-10T17:46:03.438Z,4.00
2019-06-10T17:48:31.399Z,4.33
2019-06-10T17:50:56.598Z,4.93
2019-06-10T17:53:24.268Z,4.87
2019-06-10T17:55:50.110Z,5.10
2019-06-10T17:58:31.751Z,4.13
2019-06-10T18:00:43.614Z,4.10
2019-06-10T18:03:10.354Z,4.40
2019-06-10T18:05:37.166Z,5.08
2019-06-10T18:08:03.906Z,5.20
2019-06-10T18:10:33.137Z,4.40
2019-06-10T18:13:04.586Z,4.77
2019-06-10T18:15:24.218Z,5.57
2019-06-10T18:17:52.181Z,5.07
2019-06-10T18:20:17.713Z,5.43
2019-06-10T18:22:44.470Z,4.47
2019-06-10T18:25:12.341Z,5.23
2019-06-10T18:27:37.971Z,5.23
2019-06-10T18:30:10.849Z,4.80
2019-06-10T18:32:32.818Z,4.93
2019-06-10T18:34:58.306Z,4.70
2019-06-10T18:37:26.455Z,5.10
2019-06-10T18:39:52.224Z,4.47
2019-06-10T18:42:18.533Z,5.10
2019-06-10T18:44:45.263Z,5.97
2019-06-10T18:47:13.383Z,6.60
2019-06-10T18:49:38.761Z,5.50
2019-06-10T18:52:05.495Z,5.17
2019-06-10T18:54:34.436Z,5.30
2019-06-10T18:56:59.001Z,5.07
2019-06-10T18:59:25.755Z,5.30
2019-06-10T19:01:52.858Z,5.83
2019-06-10T19:04:19.234Z,6.15
2019-06-10T19:06:45.981Z,5.50
2019-06-10T19:09:13.004Z,5.60
2019-06-10T19:11:40.194Z,5.00
2019-06-10T19:14:06.298Z,4.90
2019-06-10T19:16:35.437Z,5.37
2019-06-10T19:19:02.715Z,4.80
2019-06-10T19:21:27.008Z,5.73
2019-06-10T19:23:53.758Z,5.17
2019-06-10T19:26:22.106Z,5.03
2019-06-10T19:28:47.281Z,4.27
2019-06-10T19:31:14.018Z,5.23
2019-06-10T19:33:44.764Z,5.90
2019-06-10T19:36:07.526Z,5.77
2019-06-10T19:38:35.453Z,6.40
2019-06-10T19:41:02.731Z,6.13
2019-06-10T19:43:27.725Z,7.37
2019-06-10T19:45:54.443Z,6.40
2019-06-10T19:48:21.199Z,6.00
2019-06-10T19:50:53.076Z,6.00
2019-06-10T19:53:16.031Z,6.00
2019-06-10T19:55:44.374Z,6.97
2019-06-10T19:58:10.535Z,6.97
2019-06-10T20:00:37.424Z,6.40
2019-06-10T20:03:03.101Z,6.78
2019-06-10T20:05:32.391Z,5.97
2019-06-10T20:07:56.470Z,5.67
2019-06-10T20:10:23.197Z,5.20
2019-06-10T20:12:49.942Z,4.90
2019-06-10T20:15:18.874Z,4.97
2019-06-10T20:17:45.598Z,5.62
2019-06-10T20:20:12.761Z,5.40
2019-06-10T20:22:39.074Z,5.10
2019-06-10T20:25:05.901Z,5.27
2019-06-10T20:27:33.072Z,5.07
2019-06-10T20:30:07.740Z,5.40
2019-06-10T20:32:26.099Z,4.57
2019-06-10T20:34:53.023Z,4.63
2019-06-10T20:37:22.437Z,4.83
2019-06-10T20:39:47.725Z,4.70
2019-06-10T20:42:13.096Z,5.57
2019-06-10T20:44:40.279Z,4.27
2019-06-10T20:47:06.586Z,5.03
2019-06-10T20:49:33.369Z,5.85
2019-06-10T20:52:08.102Z,4.97
2019-06-10T20:54:26.826Z,5.37
2019-06-10T20:56:53.708Z,5.07
2019-06-10T20:59:23.180Z,4.97
2019-06-10T21:01:48.997Z,5.10
2019-06-10T21:04:13.781Z,6.10
2019-06-10T21:06:41.279Z,6.07
2019-06-10T21:09:07.664Z,6.87
2019-06-10T21:11:34.386Z,5.47
2019-06-10T21:14:03.132Z,5.77
2019-06-10T21:16:27.857Z,5.40
2019-06-10T21:18:55.447Z,5.90
2019-06-10T21:21:22.624Z,6.58
2019-06-10T21:23:49.027Z,6.85
2019-06-10T21:26:14.886Z,7.03
2019-06-10T21:28:44.362Z,6.90
2019-06-10T21:31:08.357Z,7.43
2019-06-10T21:33:35.098Z,8.13
2019-06-10T21:36:03.964Z,8.17
2019-06-10T21:38:28.582Z,8.03
2019-06-10T21:40:55.314Z,7.27
2019-06-10T21:43:22.455Z,6.60
2019-06-10T21:45:54.001Z,6.77
2019-06-10T21:48:15.649Z,6.40
2019-06-10T21:50:45.268Z,6.43
2019-06-10T21:53:09.175Z,6.47
2019-06-10T21:55:35.929Z,6.00
2019-06-10T21:58:03.662Z,5.83
2019-06-10T22:00:34.068Z,6.33
2019-06-10T22:03:02.182Z,7.45
2019-06-10T22:05:27.561Z,6.87
2019-06-10T22:07:56.353Z,7.20
2019-06-10T22:10:22.893Z,8.20
2019-06-10T22:12:48.037Z,6.70
2019-06-10T22:15:14.514Z,7.00
2019-06-10T22:17:42.516Z,6.13
2019-06-10T22:20:07.985Z,6.13
2019-06-10T22:22:34.709Z,6.10
2019-06-10T22:25:02.987Z,6.80
2019-06-10T22:27:28.225Z,6.00
2019-06-10T22:29:56.995Z,7.40
2019-06-10T22:32:21.701Z,6.90
2019-06-10T22:34:49.630Z,7.13
2019-06-10T22:37:15.158Z,6.60
2019-06-10T22:39:42.174Z,7.73
2019-06-10T22:42:08.765Z,7.47
2019-06-10T22:44:35.519Z,8.33
2019-06-10T22:47:02.915Z,7.30
2019-06-10T22:49:28.977Z,7.60
2019-06-10T22:51:58.315Z,8.73
2019-06-10T22:54:22.438Z,8.27
2019-06-10T22:56:49.415Z,8.07
2019-06-10T22:59:15.899Z,8.90
2019-06-10T23:01:42.646Z,9.97
2019-06-10T23:04:09.394Z,9.40
2019-06-10T23:06:36.109Z,9.97
2019-06-10T23:09:03.005Z,11.28
2019-06-10T23:11:32.200Z,11.23
2019-06-10T23:13:56.917Z,11.47
2019-06-10T23:16:23.233Z,10.97
2019-06-10T23:18:51.485Z,11.57
2019-06-10T23:21:16.719Z,12.23
2019-06-10T23:23:43.457Z,10.30
2019-06-10T23:26:10.207Z,11.03
2019-06-10T23:28:36.935Z,9.93
2019-06-10T23:31:05.243Z,12.58
2019-06-10T23:33:32.400Z,11.60
2019-06-10T23:35:58.583Z,13.05
2019-06-10T23:38:24.075Z,13.47
2019-06-10T23:40:50.840Z,12.57
2019-06-10T23:43:17.575Z,12.00
2019-06-10T23:45:44.339Z,11.67
2019-06-10T23:48:13.155Z,13.25
2019-06-10T23:50:37.870Z,10.87
2019-06-10T23:53:07.807Z,11.33
2019-06-10T23:55:32.029Z,11.60
2019-06-10T23:57:58.404Z,11.13
